sensor_id;sensor_type;location;lat;lon;timestamp;P1;durP1;ratioP1;P2;durP2;ratioP2
21927;SDS011;11128;51.096;17.190;2023-05-10T00:00:12;6.85;;;4.07;;
21927;SDS011;11128;51.096;17.190;2023-05-10T00:05:14;6.50;;;4.18;;
21927;SDS011;11128;51.096;17.190;2023-05-10T00:10:15;6.82;;;4.00;;
21927;SDS011;11128;51.096;17.190;2023-05-10T00:15:17;6.30;;;3.63;;
21927;SDS011;11128;51.096;17.190;2023-05-10T00:20:18;7.15;;;4.00;;
21927;SDS011;11128;51.096;17.190;2023-05-10T00:25:19;7.45;;;3.88;;
21927;SDS011;11128;51.096;17.190;2023-05-10T00:30:22;6.78;;;4.40;;
21927;SDS011;11128;51.096;17.190;2023-05-10T00:35:23;6.68;;;4.20;;
21927;SDS011;11128;51.096;17.190;2023-05-10T00:40:24;7.82;;;4.22;;
21927;SDS011;11128;51.096;17.190;2023-05-10T00:45:26;7.50;;;4.20;;
21927;SDS011;11128;51.096;17.190;2023-05-10T00:50:27;7.30;;;4.30;;
21927;SDS011;11128;51.096;17.190;2023-05-10T00:55:29;7.75;;;4.60;;
21927;SDS011;11128;51.096;17.190;2023-05-10T01:00:32;7.97;;;4.22;;
21927;SDS011;11128;51.096;17.190;2023-05-10T01:05:34;7.35;;;4.00;;
21927;SDS011;11128;51.096;17.190;2023-05-10T01:10:35;10.70;;;3.97;;
21927;SDS011;11128;51.096;17.190;2023-05-10T01:15:36;8.68;;;4.38;;
21927;SDS011;11128;51.096;17.190;2023-05-10T01:20:40;8.80;;;4.43;;
21927;SDS011;11128;51.096;17.190;2023-05-10T01:36:13;6.93;;;4.35;;
21927;SDS011;11128;51.096;17.190;2023-05-10T01:41:49;6.50;;;4.25;;
21927;SDS011;11128;51.096;17.190;2023-05-10T01:47:01;10.55;;;4.70;;
21927;SDS011;11128;51.096;17.190;2023-05-10T01:52:10;10.70;;;4.53;;
21927;SDS011;11128;51.096;17.190;2023-05-10T01:57:14;8.13;;;4.07;;
21927;SDS011;11128;51.096;17.190;2023-05-10T02:02:20;9.77;;;4.72;;
21927;SDS011;11128;51.096;17.190;2023-05-10T02:07:23;7.85;;;4.30;;
21927;SDS011;11128;51.096;17.190;2023-05-10T02:12:25;8.95;;;4.32;;
21927;SDS011;11128;51.096;17.190;2023-05-10T02:17:29;9.02;;;4.07;;
21927;SDS011;11128;51.096;17.190;2023-05-10T02:22:32;11.77;;;4.97;;
21927;SDS011;11128;51.096;17.190;2023-05-10T02:27:35;7.80;;;4.22;;
21927;SDS011;11128;51.096;17.190;2023-05-10T02:32:37;7.32;;;4.10;;
21927;SDS011;11128;51.096;17.190;2023-05-10T02:37:40;8.20;;;4.10;;
21927;SDS011;11128;51.096;17.190;2023-05-10T02:42:42;8.82;;;4.20;;
21927;SDS011;11128;51.096;17.190;2023-05-10T02:47:45;7.78;;;3.92;;
21927;SDS011;11128;51.096;17.190;2023-05-10T02:52:47;8.32;;;4.57;;
21927;SDS011;11128;51.096;17.190;2023-05-10T02:57:56;7.90;;;4.32;;
21927;SDS011;11128;51.096;17.190;2023-05-10T03:03:00;9.93;;;4.55;;
21927;SDS011;11128;51.096;17.190;2023-05-10T03:08:01;8.85;;;4.35;;
21927;SDS011;11128;51.096;17.190;2023-05-10T03:24:08;7.05;;;4.15;;
21927;SDS011;11128;51.096;17.190;2023-05-10T03:29:12;9.07;;;4.57;;
21927;SDS011;11128;51.096;17.190;2023-05-10T03:34:15;8.90;;;4.30;;
21927;SDS011;11128;51.096;17.190;2023-05-10T03:39:18;10.02;;;4.22;;
21927;SDS011;11128;51.096;17.190;2023-05-10T03:44:19;10.98;;;5.05;;
21927;SDS011;11128;51.096;17.190;2023-05-10T03:49:21;10.10;;;4.68;;
21927;SDS011;11128;51.096;17.190;2023-05-10T03:54:22;9.27;;;4.55;;
21927;SDS011;11128;51.096;17.190;2023-05-10T03:59:23;8.10;;;4.45;;
21927;SDS011;11128;51.096;17.190;2023-05-10T04:04:25;6.80;;;4.00;;
21927;SDS011;11128;51.096;17.190;2023-05-10T04:09:26;8.82;;;4.70;;
21927;SDS011;11128;51.096;17.190;2023-05-10T04:14:27;8.40;;;4.90;;
21927;SDS011;11128;51.096;17.190;2023-05-10T04:19:31;9.63;;;4.30;;
21927;SDS011;11128;51.096;17.190;2023-05-10T04:24:32;8.45;;;4.95;;
21927;SDS011;11128;51.096;17.190;2023-05-10T04:29:34;5.88;;;4.15;;
21927;SDS011;11128;51.096;17.190;2023-05-10T04:34:35;8.38;;;5.22;;
21927;SDS011;11128;51.096;17.190;2023-05-10T04:39:37;7.93;;;4.32;;
21927;SDS011;11128;51.096;17.190;2023-05-10T04:44:38;12.00;;;4.65;;
21927;SDS011;11128;51.096;17.190;2023-05-10T04:49:39;7.63;;;4.32;;
21927;SDS011;11128;51.096;17.190;2023-05-10T04:54:40;9.15;;;4.28;;
21927;SDS011;11128;51.096;17.190;2023-05-10T04:59:42;7.60;;;4.32;;
21927;SDS011;11128;51.096;17.190;2023-05-10T05:04:43;10.40;;;4.78;;
21927;SDS011;11128;51.096;17.190;2023-05-10T05:09:44;9.63;;;4.30;;
21927;SDS011;11128;51.096;17.190;2023-05-10T05:14:45;8.48;;;4.80;;
21927;SDS011;11128;51.096;17.190;2023-05-10T05:19:47;10.50;;;4.50;;
21927;SDS011;11128;51.096;17.190;2023-05-10T05:24:48;11.73;;;4.45;;
21927;SDS011;11128;51.096;17.190;2023-05-10T05:29:58;9.65;;;4.25;;
21927;SDS011;11128;51.096;17.190;2023-05-10T05:34:59;7.40;;;3.70;;
21927;SDS011;11128;51.096;17.190;2023-05-10T05:40:00;8.00;;;4.45;;
21927;SDS011;11128;51.096;17.190;2023-05-10T05:45:02;8.52;;;3.92;;
21927;SDS011;11128;51.096;17.190;2023-05-10T05:50:04;5.93;;;3.65;;
21927;SDS011;11128;51.096;17.190;2023-05-10T05:55:06;5.40;;;3.78;;
21927;SDS011;11128;51.096;17.190;2023-05-10T06:00:07;7.07;;;3.72;;
21927;SDS011;11128;51.096;17.190;2023-05-10T06:05:09;6.75;;;3.80;;
21927;SDS011;11128;51.096;17.190;2023-05-10T06:10:10;6.80;;;3.90;;
21927;SDS011;11128;51.096;17.190;2023-05-10T06:15:11;6.45;;;3.60;;
21927;SDS011;11128;51.096;17.190;2023-05-10T06:20:13;7.75;;;3.65;;
21927;SDS011;11128;51.096;17.190;2023-05-10T06:25:14;8.25;;;4.00;;
21927;SDS011;11128;51.096;17.190;2023-05-10T06:30:18;6.97;;;3.47;;
21927;SDS011;11128;51.096;17.190;2023-05-10T06:35:19;6.70;;;3.88;;
21927;SDS011;11128;51.096;17.190;2023-05-10T06:40:20;8.70;;;3.78;;
21927;SDS011;11128;51.096;17.190;2023-05-10T06:45:22;7.80;;;3.15;;
21927;SDS011;11128;51.096;17.190;2023-05-10T06:50:23;6.20;;;3.60;;
21927;SDS011;11128;51.096;17.190;2023-05-10T06:55:24;7.25;;;3.40;;
21927;SDS011;11128;51.096;17.190;2023-05-10T07:00:26;6.53;;;3.08;;
21927;SDS011;11128;51.096;17.190;2023-05-10T07:05:28;6.63;;;3.28;;
21927;SDS011;11128;51.096;17.190;2023-05-10T07:10:30;6.35;;;3.03;;
21927;SDS011;11128;51.096;17.190;2023-05-10T07:15:31;5.35;;;2.83;;
21927;SDS011;11128;51.096;17.190;2023-05-10T07:20:34;5.47;;;2.63;;
21927;SDS011;11128;51.096;17.190;2023-05-10T07:25:35;5.70;;;2.80;;
21927;SDS011;11128;51.096;17.190;2023-05-10T07:30:38;5.75;;;2.95;;
21927;SDS011;11128;51.096;17.190;2023-05-10T07:35:40;8.80;;;2.95;;
21927;SDS011;11128;51.096;17.190;2023-05-10T07:40:42;8.25;;;2.75;;
21927;SDS011;11128;51.096;17.190;2023-05-10T07:45:43;4.43;;;3.00;;
21927;SDS011;11128;51.096;17.190;2023-05-10T07:50:45;6.90;;;2.88;;
21927;SDS011;11128;51.096;17.190;2023-05-10T07:55:58;4.32;;;2.90;;
21927;SDS011;11128;51.096;17.190;2023-05-10T08:00:59;5.38;;;2.92;;
21927;SDS011;11128;51.096;17.190;2023-05-10T08:06:01;8.77;;;3.00;;
21927;SDS011;11128;51.096;17.190;2023-05-10T08:11:03;4.25;;;2.95;;
21927;SDS011;11128;51.096;17.190;2023-05-10T08:16:04;4.97;;;2.72;;
21927;SDS011;11128;51.096;17.190;2023-05-10T08:21:06;7.72;;;3.65;;
21927;SDS011;11128;51.096;17.190;2023-05-10T08:26:07;4.80;;;3.00;;
21927;SDS011;11128;51.096;17.190;2023-05-10T08:31:08;4.63;;;3.30;;
21927;SDS011;11128;51.096;17.190;2023-05-10T08:36:09;6.65;;;3.03;;
21927;SDS011;11128;51.096;17.190;2023-05-10T08:41:12;4.55;;;2.40;;
21927;SDS011;11128;51.096;17.190;2023-05-10T08:46:18;6.47;;;2.83;;
21927;SDS011;11128;51.096;17.190;2023-05-10T08:51:24;4.60;;;2.78;;
21927;SDS011;11128;51.096;17.190;2023-05-10T08:56:27;3.20;;;1.98;;
21927;SDS011;11128;51.096;17.190;2023-05-10T09:01:29;3.60;;;1.98;;
21927;SDS011;11128;51.096;17.190;2023-05-10T09:06:33;4.35;;;1.80;;
21927;SDS011;11128;51.096;17.190;2023-05-10T09:11:35;3.22;;;2.10;;
21927;SDS011;11128;51.096;17.190;2023-05-10T09:16:37;5.63;;;2.35;;
21927;SDS011;11128;51.096;17.190;2023-05-10T09:21:38;4.75;;;2.33;;
21927;SDS011;11128;51.096;17.190;2023-05-10T09:26:46;8.15;;;3.33;;
21927;SDS011;11128;51.096;17.190;2023-05-10T09:31:50;5.35;;;2.47;;
21927;SDS011;11128;51.096;17.190;2023-05-10T09:36:59;5.22;;;2.63;;
21927;SDS011;11128;51.096;17.190;2023-05-10T09:42:03;5.28;;;2.30;;
21927;SDS011;11128;51.096;17.190;2023-05-10T09:47:09;5.32;;;2.33;;
21927;SDS011;11128;51.096;17.190;2023-05-10T09:52:11;4.40;;;2.60;;
21927;SDS011;11128;51.096;17.190;2023-05-10T09:57:19;7.55;;;3.33;;
21927;SDS011;11128;51.096;17.190;2023-05-10T10:07:29;4.72;;;2.42;;
21927;SDS011;11128;51.096;17.190;2023-05-10T10:12:31;2.78;;;2.17;;
21927;SDS011;11128;51.096;17.190;2023-05-10T10:17:33;3.45;;;2.30;;
21927;SDS011;11128;51.096;17.190;2023-05-10T10:22:38;2.85;;;2.38;;
21927;SDS011;11128;51.096;17.190;2023-05-10T10:43:47;2.78;;;2.00;;
21927;SDS011;11128;51.096;17.190;2023-05-10T10:48:49;7.07;;;2.35;;
21927;SDS011;11128;51.096;17.190;2023-05-10T10:53:52;4.85;;;1.98;;
21927;SDS011;11128;51.096;17.190;2023-05-10T10:58:58;4.05;;;2.20;;
21927;SDS011;11128;51.096;17.190;2023-05-10T11:09:17;2.70;;;2.17;;
21927;SDS011;11128;51.096;17.190;2023-05-10T11:14:20;2.63;;;2.00;;
21927;SDS011;11128;51.096;17.190;2023-05-10T11:19:23;3.55;;;1.98;;
21927;SDS011;11128;51.096;17.190;2023-05-10T11:24:28;6.50;;;2.08;;
21927;SDS011;11128;51.096;17.190;2023-05-10T11:29:30;3.63;;;1.65;;
21927;SDS011;11128;51.096;17.190;2023-05-10T11:34:31;2.38;;;1.58;;
21927;SDS011;11128;51.096;17.190;2023-05-10T11:39:35;5.55;;;1.83;;
21927;SDS011;11128;51.096;17.190;2023-05-10T11:44:37;3.38;;;1.60;;
21927;SDS011;11128;51.096;17.190;2023-05-10T11:49:38;3.10;;;1.50;;
21927;SDS011;11128;51.096;17.190;2023-05-10T11:54:53;5.50;;;1.73;;
21927;SDS011;11128;51.096;17.190;2023-05-10T11:59:56;1.75;;;1.40;;
21927;SDS011;11128;51.096;17.190;2023-05-10T12:04:58;3.00;;;1.80;;
21927;SDS011;11128;51.096;17.190;2023-05-10T12:15:19;4.10;;;1.52;;
21927;SDS011;11128;51.096;17.190;2023-05-10T12:20:22;2.90;;;1.88;;
21927;SDS011;11128;51.096;17.190;2023-05-10T12:25:29;2.88;;;1.55;;
21927;SDS011;11128;51.096;17.190;2023-05-10T12:30:33;4.75;;;1.80;;
21927;SDS011;11128;51.096;17.190;2023-05-10T12:35:52;2.33;;;1.40;;
21927;SDS011;11128;51.096;17.190;2023-05-10T12:40:55;1.63;;;1.45;;
21927;SDS011;11128;51.096;17.190;2023-05-10T12:51:09;3.40;;;1.20;;
21927;SDS011;11128;51.096;17.190;2023-05-10T12:56:12;3.70;;;1.33;;
21927;SDS011;11128;51.096;17.190;2023-05-10T13:01:14;1.70;;;1.45;;
21927;SDS011;11128;51.096;17.190;2023-05-10T13:06:29;4.18;;;1.40;;
21927;SDS011;11128;51.096;17.190;2023-05-10T13:11:31;7.38;;;3.67;;
21927;SDS011;11128;51.096;17.190;2023-05-10T13:16:33;12.63;;;5.25;;
21927;SDS011;11128;51.096;17.190;2023-05-10T13:21:34;14.55;;;10.52;;
21927;SDS011;11128;51.096;17.190;2023-05-10T13:26:36;25.13;;;11.48;;
21927;SDS011;11128;51.096;17.190;2023-05-10T13:31:38;6.70;;;2.70;;
21927;SDS011;11128;51.096;17.190;2023-05-10T13:36:39;2.55;;;2.30;;
21927;SDS011;11128;51.096;17.190;2023-05-10T13:41:41;1.60;;;1.50;;
21927;SDS011;11128;51.096;17.190;2023-05-10T13:46:43;2.17;;;1.20;;
21927;SDS011;11128;51.096;17.190;2023-05-10T13:51:45;1.50;;;1.35;;
21927;SDS011;11128;51.096;17.190;2023-05-10T14:02:45;1.73;;;1.15;;
21927;SDS011;11128;51.096;17.190;2023-05-10T14:07:47;1.60;;;1.30;;
21927;SDS011;11128;51.096;17.190;2023-05-10T14:12:49;2.65;;;1.30;;
21927;SDS011;11128;51.096;17.190;2023-05-10T14:17:51;1.83;;;1.15;;
21927;SDS011;11128;51.096;17.190;2023-05-10T14:22:52;1.92;;;1.20;;
21927;SDS011;11128;51.096;17.190;2023-05-10T14:27:53;1.63;;;1.10;;
21927;SDS011;11128;51.096;17.190;2023-05-10T14:32:55;5.50;;;1.38;;
21927;SDS011;11128;51.096;17.190;2023-05-10T14:37:58;4.15;;;1.50;;
21927;SDS011;11128;51.096;17.190;2023-05-10T14:43:00;2.17;;;1.40;;
21927;SDS011;11128;51.096;17.190;2023-05-10T14:48:02;1.65;;;1.25;;
21927;SDS011;11128;51.096;17.190;2023-05-10T14:58:45;11.90;;;1.70;;
21927;SDS011;11128;51.096;17.190;2023-05-10T15:03:46;5.35;;;1.92;;
21927;SDS011;11128;51.096;17.190;2023-05-10T15:08:48;3.75;;;1.50;;
21927;SDS011;11128;51.096;17.190;2023-05-10T15:13:49;5.32;;;1.58;;
21927;SDS011;11128;51.096;17.190;2023-05-10T15:18:51;2.55;;;1.33;;
21927;SDS011;11128;51.096;17.190;2023-05-10T15:23:52;2.92;;;1.20;;
21927;SDS011;11128;51.096;17.190;2023-05-10T15:28:54;1.55;;;1.40;;
21927;SDS011;11128;51.096;17.190;2023-05-10T15:33:56;1.42;;;1.13;;
21927;SDS011;11128;51.096;17.190;2023-05-10T15:38:59;4.15;;;1.40;;
21927;SDS011;11128;51.096;17.190;2023-05-10T15:44:01;2.17;;;1.63;;
21927;SDS011;11128;51.096;17.190;2023-05-10T15:49:03;4.15;;;1.58;;
21927;SDS011;11128;51.096;17.190;2023-05-10T15:54:04;2.60;;;1.30;;
21927;SDS011;11128;51.096;17.190;2023-05-10T15:59:07;3.25;;;1.48;;
21927;SDS011;11128;51.096;17.190;2023-05-10T16:04:10;2.35;;;1.50;;
21927;SDS011;11128;51.096;17.190;2023-05-10T16:09:11;3.42;;;1.90;;
21927;SDS011;11128;51.096;17.190;2023-05-10T16:14:13;5.65;;;2.00;;
21927;SDS011;11128;51.096;17.190;2023-05-10T16:19:15;2.30;;;1.75;;
21927;SDS011;11128;51.096;17.190;2023-05-10T16:24:17;4.43;;;2.17;;
21927;SDS011;11128;51.096;17.190;2023-05-10T16:29:18;6.85;;;2.40;;
21927;SDS011;11128;51.096;17.190;2023-05-10T16:34:20;5.18;;;2.10;;
21927;SDS011;11128;51.096;17.190;2023-05-10T16:39:26;5.35;;;2.65;;
21927;SDS011;11128;51.096;17.190;2023-05-10T16:44:27;3.75;;;2.60;;
21927;SDS011;11128;51.096;17.190;2023-05-10T16:49:28;2.85;;;2.40;;
21927;SDS011;11128;51.096;17.190;2023-05-10T16:54:30;2.38;;;1.60;;
21927;SDS011;11128;51.096;17.190;2023-05-10T16:59:31;4.03;;;1.73;;
21927;SDS011;11128;51.096;17.190;2023-05-10T17:04:33;2.80;;;1.88;;
21927;SDS011;11128;51.096;17.190;2023-05-10T17:09:34;2.95;;;2.30;;
21927;SDS011;11128;51.096;17.190;2023-05-10T17:14:36;6.53;;;3.10;;
21927;SDS011;11128;51.096;17.190;2023-05-10T17:19:43;3.90;;;2.80;;
21927;SDS011;11128;51.096;17.190;2023-05-10T17:24:45;4.82;;;2.35;;
21927;SDS011;11128;51.096;17.190;2023-05-10T17:29:46;4.35;;;2.80;;
21927;SDS011;11128;51.096;17.190;2023-05-10T17:34:48;5.25;;;2.08;;
21927;SDS011;11128;51.096;17.190;2023-05-10T17:39:49;4.85;;;2.35;;
21927;SDS011;11128;51.096;17.190;2023-05-10T17:44:51;8.23;;;1.85;;
21927;SDS011;11128;51.096;17.190;2023-05-10T17:49:52;4.03;;;2.53;;
21927;SDS011;11128;51.096;17.190;2023-05-10T17:54:53;7.03;;;4.07;;
21927;SDS011;11128;51.096;17.190;2023-05-10T17:59:55;6.72;;;3.22;;
21927;SDS011;11128;51.096;17.190;2023-05-10T18:04:56;7.28;;;2.90;;
21927;SDS011;11128;51.096;17.190;2023-05-10T18:09:58;10.23;;;4.00;;
21927;SDS011;11128;51.096;17.190;2023-05-10T18:15:00;5.18;;;2.40;;
21927;SDS011;11128;51.096;17.190;2023-05-10T18:20:03;8.18;;;2.97;;
21927;SDS011;11128;51.096;17.190;2023-05-10T18:25:06;7.15;;;3.33;;
21927;SDS011;11128;51.096;17.190;2023-05-10T18:30:07;5.82;;;2.85;;
21927;SDS011;11128;51.096;17.190;2023-05-10T18:35:10;5.22;;;3.30;;
21927;SDS011;11128;51.096;17.190;2023-05-10T18:40:12;6.15;;;3.70;;
21927;SDS011;11128;51.096;17.190;2023-05-10T18:45:14;9.13;;;4.38;;
21927;SDS011;11128;51.096;17.190;2023-05-10T18:50:16;15.30;;;5.72;;
21927;SDS011;11128;51.096;17.190;2023-05-10T18:55:19;10.05;;;5.03;;
21927;SDS011;11128;51.096;17.190;2023-05-10T19:00:20;12.60;;;4.78;;
21927;SDS011;11128;51.096;17.190;2023-05-10T19:05:24;7.22;;;3.63;;
21927;SDS011;11128;51.096;17.190;2023-05-10T19:10:29;5.93;;;3.25;;
21927;SDS011;11128;51.096;17.190;2023-05-10T19:15:31;5.53;;;3.10;;
21927;SDS011;11128;51.096;17.190;2023-05-10T19:20:33;5.00;;;2.70;;
21927;SDS011;11128;51.096;17.190;2023-05-10T19:25:34;6.10;;;3.20;;
21927;SDS011;11128;51.096;17.190;2023-05-10T19:30:36;13.13;;;6.22;;
21927;SDS011;11128;51.096;17.190;2023-05-10T19:35:38;35.42;;;15.77;;
21927;SDS011;11128;51.096;17.190;2023-05-10T19:40:39;16.25;;;9.30;;
21927;SDS011;11128;51.096;17.190;2023-05-10T19:45:40;15.25;;;6.97;;
21927;SDS011;11128;51.096;17.190;2023-05-10T19:50:42;12.63;;;5.05;;
21927;SDS011;11128;51.096;17.190;2023-05-10T19:55:43;7.35;;;4.18;;
21927;SDS011;11128;51.096;17.190;2023-05-10T20:00:44;9.82;;;4.50;;
21927;SDS011;11128;51.096;17.190;2023-05-10T20:05:46;8.25;;;4.60;;
21927;SDS011;11128;51.096;17.190;2023-05-10T20:10:47;8.00;;;3.95;;
21927;SDS011;11128;51.096;17.190;2023-05-10T20:15:48;9.02;;;4.43;;
21927;SDS011;11128;51.096;17.190;2023-05-10T20:20:53;6.50;;;4.25;;
21927;SDS011;11128;51.096;17.190;2023-05-10T20:25:55;13.60;;;4.50;;
21927;SDS011;11128;51.096;17.190;2023-05-10T20:30:56;6.60;;;4.05;;
21927;SDS011;11128;51.096;17.190;2023-05-10T20:35:58;7.80;;;4.60;;
21927;SDS011;11128;51.096;17.190;2023-05-10T20:41:00;10.07;;;3.72;;
21927;SDS011;11128;51.096;17.190;2023-05-10T20:46:01;8.88;;;4.43;;
21927;SDS011;11128;51.096;17.190;2023-05-10T20:51:04;9.07;;;3.78;;
21927;SDS011;11128;51.096;17.190;2023-05-10T20:56:06;11.10;;;3.80;;
21927;SDS011;11128;51.096;17.190;2023-05-10T21:01:07;7.40;;;3.50;;
21927;SDS011;11128;51.096;17.190;2023-05-10T21:06:09;7.93;;;3.42;;
21927;SDS011;11128;51.096;17.190;2023-05-10T21:11:10;6.68;;;3.10;;
21927;SDS011;11128;51.096;17.190;2023-05-10T21:16:11;5.30;;;2.92;;
21927;SDS011;11128;51.096;17.190;2023-05-10T21:21:12;4.60;;;2.95;;
21927;SDS011;11128;51.096;17.190;2023-05-10T21:26:14;6.65;;;3.85;;
21927;SDS011;11128;51.096;17.190;2023-05-10T21:31:16;5.07;;;3.30;;
21927;SDS011;11128;51.096;17.190;2023-05-10T21:36:17;5.30;;;2.60;;
21927;SDS011;11128;51.096;17.190;2023-05-10T21:41:19;4.88;;;3.22;;
21927;SDS011;11128;51.096;17.190;2023-05-10T21:46:22;7.15;;;2.95;;
21927;SDS011;11128;51.096;17.190;2023-05-10T21:51:23;5.22;;;2.72;;
21927;SDS011;11128;51.096;17.190;2023-05-10T21:56:24;4.15;;;2.70;;
21927;SDS011;11128;51.096;17.190;2023-05-10T22:01:26;5.15;;;2.92;;
21927;SDS011;11128;51.096;17.190;2023-05-10T22:06:39;5.70;;;3.15;;
21927;SDS011;11128;51.096;17.190;2023-05-10T22:11:41;5.63;;;3.35;;
21927;SDS011;11128;51.096;17.190;2023-05-10T22:16:42;5.95;;;3.60;;
21927;SDS011;11128;51.096;17.190;2023-05-10T22:22:02;8.30;;;3.20;;
21927;SDS011;11128;51.096;17.190;2023-05-10T22:27:04;4.93;;;2.85;;
21927;SDS011;11128;51.096;17.190;2023-05-10T22:32:05;4.40;;;2.90;;
21927;SDS011;11128;51.096;17.190;2023-05-10T22:37:07;7.80;;;3.75;;
21927;SDS011;11128;51.096;17.190;2023-05-10T22:42:08;5.40;;;2.72;;
21927;SDS011;11128;51.096;17.190;2023-05-10T22:47:10;7.97;;;3.08;;
21927;SDS011;11128;51.096;17.190;2023-05-10T22:52:11;4.90;;;3.10;;
21927;SDS011;11128;51.096;17.190;2023-05-10T22:57:12;5.93;;;3.28;;
21927;SDS011;11128;51.096;17.190;2023-05-10T23:02:14;4.50;;;2.83;;
21927;SDS011;11128;51.096;17.190;2023-05-10T23:07:16;7.05;;;2.83;;
21927;SDS011;11128;51.096;17.190;2023-05-10T23:12:17;4.05;;;3.15;;
21927;SDS011;11128;51.096;17.190;2023-05-10T23:17:19;5.85;;;3.15;;
21927;SDS011;11128;51.096;17.190;2023-05-10T23:22:20;5.03;;;2.90;;
21927;SDS011;11128;51.096;17.190;2023-05-10T23:27:21;8.48;;;3.80;;
21927;SDS011;11128;51.096;17.190;2023-05-10T23:32:22;5.63;;;3.28;;
21927;SDS011;11128;51.096;17.190;2023-05-10T23:37:24;6.15;;;3.30;;
21927;SDS011;11128;51.096;17.190;2023-05-10T23:42:25;8.88;;;3.63;;
21927;SDS011;11128;51.096;17.190;2023-05-10T23:47:26;6.13;;;3.60;;
21927;SDS011;11128;51.096;17.190;2023-05-10T23:52:27;4.85;;;3.40;;
21927;SDS011;11128;51.096;17.190;2023-05-10T23:57:29;5.03;;;3.28;;
